KELP/ELP METAR and TAF weather

Enter ICAO airport designator
Station Type Date Time Source
KELP METAR 2023/02/06 19:51 UTC NOAA

KELP 061951Z 26019G27KT 10SM FEW220 22/M09 A2984 RMK AO2 PK WND 27029/1918 SLP053 T02221089


Station Type Date Time Source
KELP Decoded METAR 2023/02/06 19:51 UTC NOAA

EL PASO INTERNATIONAL AIRPORT , TX, United States (KELP) 31-49N 106-23W 1197M
Feb 06, 2023 - 02:51 PM EST / 2023.02.06 1951 UTC
Wind: from the W (260 degrees) at 22 MPH (19 KT) gusting to 31 MPH (27 KT):0
Visibility: 10 mile(s):0
Sky conditions: mostly clear
Temperature: 72.0 F (22.2 C)
Dew Point: 16.0 F (-8.9 C)
Relative Humidity: 11%
Pressure (altimeter): 29.84 in. Hg (1010 hPa)
ob: KELP 061951Z 26019G27KT 10SM FEW220 22/M09 A2984 RMK AO2 PK WND 27029/1918 SLP053 T02221089
cycle: 20

Station Type Date Time Source
KELP TAF 2023/02/06 18:45 UTC NOAA

TAF KELP 061740Z 0618/0718 23008KT P6SM FEW250
FM062000 26018G28KT P6SM FEW250
FM070100 30012G20KT P6SM SCT250
FM070600 28007KT P6SM BKN250

Example: see airport list